Time;durP1;ratioP1;P1;durP2;ratioP2;P2;SDS_P1;SDS_P2;PMS_P1;PMS_P2;Temp;Humidity;BMP_temperature;BMP_pressure;BME280_temperature;BME280_humidity;BME280_pressure;Samples;Min_cycle;Max_cycle;Signal;HPM_P1;HPM_P2
2023/05/25 00:01:26;;;;;;;;;;;;;;;19.64;62.45;100548.13;5393392;32;34784;-70
2023/05/25 00:04:35;;;;;;;;;;;;;;;19.16;64.28;100539.19;5411532;32;35754;-68
2023/05/25 00:07:38;;;;;;;;;;;;;;;19.38;63.20;100539.31;5401253;32;35009;-70
2023/05/25 00:10:40;;;;;;;;;;;;;;;18.46;66.90;100549.47;5400942;32;35023;-69
2023/05/25 00:13:42;;;;;;;;;;;;;;;18.88;65.25;100545.66;5419282;32;35227;-70
2023/05/25 00:16:47;;;;;;;;;;;;;;;18.98;64.49;100544.03;5408027;32;34881;-70
2023/05/25 00:19:49;;;;;;;;;;;;;;;19.24;64.01;100542.13;5405075;32;44670;-68
2023/05/25 00:22:54;;;;;;;;;;;;;;;19.53;63.02;100536.50;5407770;32;35287;-69
2023/05/25 00:25:56;;;;;;;;;;;;;;;18.87;64.97;100552.81;5401381;32;35095;-67
2023/05/25 00:28:59;;;;;;;;;;;;;;;19.00;64.85;100557.22;5409892;32;34301;-68
2023/05/25 00:32:01;;;;;;;;;;;;;;;18.60;65.85;100557.34;5407208;32;36415;-68
2023/05/25 00:35:03;;;;;;;;;;;;;;;18.61;65.96;100545.75;5402997;32;37290;-68
2023/05/25 00:38:05;;;;;;;;;;;;;;;19.41;63.06;100543.59;5396553;32;35582;-67
2023/05/25 00:41:07;;;;;;;;;;;;;;;19.65;62.26;100549.81;5399117;32;35093;-69
2023/05/25 00:44:10;;;;;;;;;;;;;;;19.60;61.31;100553.78;5398242;32;35073;-68
2023/05/25 00:47:12;;;;;;;;;;;;;;;18.87;64.70;100555.47;5396592;32;35455;-68
2023/05/25 00:50:14;;;;;;;;;;;;;;;19.95;60.80;100549.31;5411956;32;34216;-71
2023/05/25 00:53:16;;;;;;;;;;;;;;;20.55;58.37;100558.13;5400529;32;45455;-68
2023/05/25 00:56:22;;;;;;;;;;;;;;;19.93;60.79;100561.06;5392902;32;885173;-69
2023/05/25 00:59:34;;;;;;;;;;;;;;;19.75;60.71;100558.81;5398812;32;34818;-67
2023/05/25 01:02:37;;;;;;;;;;;;;;;19.60;62.04;100565.28;5409633;32;34790;-68
2023/05/25 01:05:41;;;;;;;;;;;;;;;19.11;63.52;100571.47;5406794;32;34757;-69
2023/05/25 01:08:46;;;;;;;;;;;;;;;19.14;63.74;100575.75;5402959;32;33996;-69
2023/05/25 01:11:49;;;;;;;;;;;;;;;19.05;63.82;100571.91;5401497;32;45209;-68
2023/05/25 01:14:52;;;;;;;;;;;;;;;18.52;66.06;100576.53;5394631;32;35214;-69
2023/05/25 01:17:58;;;;;;;;;;;;;;;18.84;64.59;100574.31;5397951;32;35528;-70
2023/05/25 01:21:27;;;;;;;;;;;;;;;18.81;65.07;100577.19;5401060;32;34618;-69
2023/05/25 01:24:32;;;;;;;;;;;;;;;18.78;64.73;100574.72;5407808;32;35700;-69
2023/05/25 01:27:37;;;;;;;;;;;;;;;18.53;65.36;100585.34;5416743;32;34973;-68
2023/05/25 01:30:40;;;;;;;;;;;;;;;18.77;64.45;100580.19;5399275;32;35132;-68
2023/05/25 01:33:43;;;;;;;;;;;;;;;18.32;66.08;100585.87;5395774;32;35755;-68
2023/05/25 01:36:45;;;;;;;;;;;;;;;18.04;67.44;100586.91;5391129;32;34603;-69
2023/05/25 01:39:47;;;;;;;;;;;;;;;18.01;67.47;100588.91;5385282;32;44567;-69
2023/05/25 01:42:49;;;;;;;;;;;;;;;18.79;64.29;100591.56;5415079;32;35307;-67
2023/05/25 01:45:51;;;;;;;;;;;;;;;18.63;65.54;100602.41;5410558;32;34606;-67
2023/05/25 01:48:55;;;;;;;;;;;;;;;18.34;66.76;100593.75;5381676;32;35409;-69
2023/05/25 01:52:03;;;;;;;;;;;;;;;19.17;62.68;100584.38;5394524;32;35101;-68
2023/05/25 01:55:06;;;;;;;;;;;;;;;18.26;66.68;100594.28;5420592;32;34919;-70
2023/05/25 01:58:08;;;;;;;;;;;;;;;18.31;66.51;100591.31;5407876;32;34466;-69
2023/05/25 02:01:11;;;;;;;;;;;;;;;18.11;67.69;100590.00;5391106;32;34625;-68
2023/05/25 02:04:16;;;;;;;;;;;;;;;18.39;67.14;100584.50;5421654;32;34826;-68
2023/05/25 02:07:18;;;;;;;;;;;;;;;18.96;64.81;100587.72;5406960;32;44729;-68
2023/05/25 02:10:20;;;;;;;;;;;;;;;18.16;68.19;100587.00;5408272;32;33444;-67
2023/05/25 02:13:22;;;;;;;;;;;;;;;18.06;68.30;100589.44;5412689;32;34901;-69
2023/05/25 02:16:26;;;;;;;;;;;;;;;18.19;67.65;100585.00;5405256;32;34783;-69
2023/05/25 02:19:28;;;;;;;;;;;;;;;18.13;66.94;100582.75;5416247;32;34637;-67
2023/05/25 02:22:31;;;;;;;;;;;;;;;19.13;63.20;100585.56;5391610;32;34358;-69
2023/05/25 02:25:33;;;;;;;;;;;;;;;19.56;61.34;100587.75;5401989;32;34933;-69
2023/05/25 02:28:35;;;;;;;;;;;;;;;19.56;61.09;100586.91;5386339;32;35052;-69
2023/05/25 02:31:37;;;;;;;;;;;;;;;18.69;64.04;100591.38;5423388;32;34839;-68
2023/05/25 02:34:40;;;;;;;;;;;;;;;18.08;67.40;100592.84;5401079;32;34902;-68
2023/05/25 02:37:42;;;;;;;;;;;;;;;17.79;68.45;100598.31;5403724;32;34992;-68
2023/05/25 02:40:44;;;;;;;;;;;;;;;17.98;67.79;100605.06;5414049;32;35003;-68
2023/05/25 02:43:46;;;;;;;;;;;;;;;18.41;66.91;100595.03;5409523;32;43267;-67
2023/05/25 02:46:48;;;;;;;;;;;;;;;17.64;69.30;100606.37;5411017;32;35368;-69
2023/05/25 02:49:51;;;;;;;;;;;;;;;17.73;69.50;100603.16;5366571;32;35018;-69
2023/05/25 02:52:53;;;;;;;;;;;;;;;17.59;69.67;100615.53;5406296;32;35329;-69
2023/05/25 02:55:55;;;;;;;;;;;;;;;17.67;69.40;100617.69;5416240;32;36024;-69
2023/05/25 02:58:57;;;;;;;;;;;;;;;18.44;65.05;100609.94;5415078;32;35296;-69
2023/05/25 03:01:59;;;;;;;;;;;;;;;18.58;64.77;100617.84;5414462;32;35449;-69
2023/05/25 03:05:02;;;;;;;;;;;;;;;18.51;64.85;100600.59;5398449;32;35867;-69
2023/05/25 03:08:05;;;;;;;;;;;;;;;17.78;67.56;100615.22;5402288;32;33970;-66
2023/05/25 03:11:07;;;;;;;;;;;;;;;18.51;65.15;100613.87;5397557;32;35350;-69
2023/05/25 03:14:09;;;;;;;;;;;;;;;17.79;67.78;100614.25;5418005;32;33497;-67
2023/05/25 03:17:14;;;;;;;;;;;;;;;18.54;65.14;100611.84;5394972;32;34691;-68
2023/05/25 03:20:16;;;;;;;;;;;;;;;18.05;66.81;100619.66;5404556;32;44863;-67
2023/05/25 03:23:18;;;;;;;;;;;;;;;18.14;66.11;100624.34;5413699;32;34802;-68
2023/05/25 03:26:20;;;;;;;;;;;;;;;17.62;67.89;100629.56;5413966;32;35110;-68
2023/05/25 03:29:22;;;;;;;;;;;;;;;17.49;68.91;100632.12;5420608;32;34131;-68
2023/05/25 03:32:24;;;;;;;;;;;;;;;17.53;68.28;100631.84;5396184;32;35045;-68
2023/05/25 03:35:26;;;;;;;;;;;;;;;18.23;65.51;100628.22;5401920;32;34885;-68
2023/05/25 03:38:28;;;;;;;;;;;;;;;18.16;65.29;100627.75;5404092;32;34934;-69
2023/05/25 03:41:30;;;;;;;;;;;;;;;18.01;66.82;100639.41;5413143;32;34676;-67
2023/05/25 03:44:32;;;;;;;;;;;;;;;18.50;64.75;100626.34;5405262;32;34732;-67
2023/05/25 03:47:34;;;;;;;;;;;;;;;17.62;68.22;100634.88;5396892;32;34816;-68
2023/05/25 03:50:38;;;;;;;;;;;;;;;18.17;65.79;100626.81;5413976;32;35650;-67
2023/05/25 03:53:40;;;;;;;;;;;;;;;18.03;67.22;100632.19;5405681;32;34761;-69
2023/05/25 03:56:42;;;;;;;;;;;;;;;18.44;65.18;100623.25;5407064;32;35206;-68
2023/05/25 03:59:45;;;;;;;;;;;;;;;18.16;66.02;100633.06;5396485;32;34370;-70
2023/05/25 04:02:47;;;;;;;;;;;;;;;18.18;65.87;100639.16;5388987;32;45889;-68
2023/05/25 04:05:50;;;;;;;;;;;;;;;18.84;63.66;100643.53;5420893;32;35166;-68
2023/05/25 04:08:52;;;;;;;;;;;;;;;19.44;60.89;100649.97;5403320;32;34726;-68
2023/05/25 04:11:53;;;;;;;;;;;;;;;19.07;62.32;100657.06;5400761;32;35314;-69
2023/05/25 04:14:56;;;;;;;;;;;;;;;19.25;62.60;100655.75;5410530;32;34952;-70
2023/05/25 04:17:58;;;;;;;;;;;;;;;19.83;60.30;100648.91;5416453;32;34791;-69
2023/05/25 04:21:00;;;;;;;;;;;;;;;19.45;60.96;100657.03;5393072;32;35441;-68
2023/05/25 04:24:02;;;;;;;;;;;;;;;19.62;60.55;100663.81;5411168;32;36022;-67
2023/05/25 04:27:04;;;;;;;;;;;;;;;19.50;61.83;100662.84;5417785;32;34896;-69
2023/05/25 04:30:07;;;;;;;;;;;;;;;20.31;59.05;100656.91;5398549;32;34437;-69
2023/05/25 04:33:12;;;;;;;;;;;;;;;20.42;58.35;100648.09;5413926;32;34678;-70
2023/05/25 04:36:14;;;;;;;;;;;;;;;20.41;58.62;100652.56;5390570;32;35058;-68
2023/05/25 04:39:16;;;;;;;;;;;;;;;20.54;58.94;100656.06;5403698;32;45389;-68
2023/05/25 04:42:18;;;;;;;;;;;;;;;21.26;56.62;100649.59;5395565;32;34981;-68
2023/05/25 04:45:20;;;;;;;;;;;;;;;20.70;58.03;100658.38;5394430;32;34275;-68
2023/05/25 04:48:23;;;;;;;;;;;;;;;20.90;57.68;100653.31;5396097;32;34860;-68
2023/05/25 04:51:25;;;;;;;;;;;;;;;21.93;54.87;100656.66;5410791;32;34304;-68
2023/05/25 04:54:27;;;;;;;;;;;;;;;21.21;56.21;100660.63;5417415;32;36918;-68
2023/05/25 04:57:30;;;;;;;;;;;;;;;21.54;54.71;100658.94;5396399;32;34939;-70
2023/05/25 05:00:33;;;;;;;;;;;;;;;22.73;51.56;100656.19;5404278;32;36133;-68
2023/05/25 05:03:35;;;;;;;;;;;;;;;23.42;49.26;100657.28;5400322;32;34934;-68
2023/05/25 05:06:38;;;;;;;;;;;;;;;23.34;49.54;100659.78;5409245;32;35282;-67
2023/05/25 05:09:40;;;;;;;;;;;;;;;23.64;49.21;100656.25;5411837;32;35198;-68
2023/05/25 05:12:42;;;;;;;;;;;;;;;23.18;50.26;100671.00;5408786;32;34438;-69
2023/05/25 05:15:44;;;;;;;;;;;;;;;23.27;49.99;100671.19;5402944;32;35143;-69
2023/05/25 05:18:46;;;;;;;;;;;;;;;23.21;50.17;100665.38;5406005;32;44474;-68
2023/05/25 05:21:48;;;;;;;;;;;;;;;23.82;48.49;100677.87;5400120;32;34185;-68
2023/05/25 05:24:50;;;;;;;;;;;;;;;23.69;47.68;100671.91;5390570;32;35327;-68
2023/05/25 05:27:52;;;;;;;;;;;;;;;24.57;46.74;100663.81;5385230;32;34594;-68
2023/05/25 05:30:54;;;;;;;;;;;;;;;25.12;45.42;100660.47;5388957;32;34625;-68
2023/05/25 05:33:56;;;;;;;;;;;;;;;25.18;45.03;100662.53;5388266;32;35293;-68
2023/05/25 05:37:01;;;;;;;;;;;;;;;26.84;41.49;100657.72;5384994;32;35495;-69
2023/05/25 05:40:04;;;;;;;;;;;;;;;25.76;43.33;100658.75;5387264;32;35597;-65
2023/05/25 05:43:06;;;;;;;;;;;;;;;25.21;44.96;100658.72;5409260;32;35000;-67
2023/05/25 05:46:09;;;;;;;;;;;;;;;25.02;45.27;100660.47;5399202;32;34679;-73
2023/05/25 05:49:11;;;;;;;;;;;;;;;24.77;45.45;100659.25;5366976;32;34936;-68
2023/05/25 05:52:13;;;;;;;;;;;;;;;24.53;47.16;100665.09;5415042;32;35525;-72
2023/05/25 05:55:15;;;;;;;;;;;;;;;24.65;46.41;100664.94;5411948;32;34852;-67
2023/05/25 05:58:17;;;;;;;;;;;;;;;25.23;45.35;100678.25;5407503;32;44510;-69
2023/05/25 06:01:20;;;;;;;;;;;;;;;26.93;41.44;100671.09;5410366;32;34413;-70
2023/05/25 06:04:24;;;;;;;;;;;;;;;26.96;41.08;100675.31;5400865;32;35509;-71
2023/05/25 06:07:29;;;;;;;;;;;;;;;26.89;40.74;100667.03;5402726;32;35064;-68
2023/05/25 06:10:31;;;;;;;;;;;;;;;27.53;39.54;100673.81;5394955;32;34843;-74
2023/05/25 06:13:33;;;;;;;;;;;;;;;28.18;38.26;100675.00;5390632;32;35584;-71
2023/05/25 06:16:36;;;;;;;;;;;;;;;26.54;41.71;100680.59;5400431;32;34859;-74
2023/05/25 06:19:38;;;;;;;;;;;;;;;27.77;38.96;100675.78;5375881;32;35586;-71
2023/05/25 06:22:40;;;;;;;;;;;;;;;27.58;39.49;100675.19;5401431;32;34827;-67
2023/05/25 06:25:42;;;;;;;;;;;;;;;27.36;39.16;100671.19;5407931;32;34897;-76
2023/05/25 06:28:46;;;;;;;;;;;;;;;26.52;40.95;100678.03;5376966;32;36860;-67
2023/05/25 06:31:48;;;;;;;;;;;;;;;27.91;38.09;100677.00;5390293;32;47096;-77
2023/05/25 06:34:50;;;;;;;;;;;;;;;28.10;37.42;100669.59;5397250;32;35197;-73
2023/05/25 06:37:52;;;;;;;;;;;;;;;28.77;36.21;100664.88;5399640;32;35832;-73
2023/05/25 06:40:54;;;;;;;;;;;;;;;27.55;38.46;100679.03;5408493;32;34917;-71
2023/05/25 06:43:56;;;;;;;;;;;;;;;28.71;35.88;100662.88;5409617;32;34765;-70
2023/05/25 06:46:58;;;;;;;;;;;;;;;27.53;38.93;100676.50;5402055;32;35108;-71
2023/05/25 06:50:00;;;;;;;;;;;;;;;29.80;33.92;100675.75;5397367;32;33228;-71
2023/05/25 06:53:02;;;;;;;;;;;;;;;29.55;34.60;100678.59;5393764;32;34371;-71
2023/05/25 06:56:05;;;;;;;;;;;;;;;28.19;37.08;100682.94;5424882;32;35510;-72
2023/05/25 06:59:07;;;;;;;;;;;;;;;27.51;37.69;100688.47;5386670;32;35000;-76
2023/05/25 07:02:09;;;;;;;;;;;;;;;29.09;35.53;100677.53;5397516;32;34605;-75
2023/05/25 07:05:11;;;;;;;;;;;;;;;27.17;39.34;100683.91;5411967;32;35531;-70
2023/05/25 07:08:14;;;;;;;;;;;;;;;29.75;34.32;100679.00;5406793;32;34943;-77
2023/05/25 07:11:19;;;;;;;;;;;;;;;29.18;34.48;100684.63;5401750;32;42742;-74
2023/05/25 07:14:21;;;;;;;;;;;;;;;28.59;35.95;100692.09;5402538;32;35499;-73
2023/05/25 07:17:23;;;;;;;;;;;;;;;28.55;35.88;100691.63;5386207;32;34265;-71
2023/05/25 07:20:26;;;;;;;;;;;;;;;30.59;32.51;100685.41;5413496;32;34398;-73
2023/05/25 07:23:28;;;;;;;;;;;;;;;29.94;32.92;100688.53;5398041;32;35510;-68
2023/05/25 07:26:30;;;;;;;;;;;;;;;29.83;33.49;100687.09;5396810;32;35429;-73
2023/05/25 07:29:33;;;;;;;;;;;;;;;29.93;33.29;100690.41;5372769;32;34659;-72
2023/05/25 07:32:37;;;;;;;;;;;;;;;30.18;32.28;100691.13;5414945;32;34189;-72
2023/05/25 07:35:39;;;;;;;;;;;;;;;30.12;32.63;100683.72;5379572;32;34766;-72
2023/05/25 07:38:41;;;;;;;;;;;;;;;29.57;33.61;100690.09;5373816;32;34188;-75
2023/05/25 07:41:43;;;;;;;;;;;;;;;28.70;35.07;100689.06;5392182;32;34140;-74
2023/05/25 07:44:47;;;;;;;;;;;;;;;29.90;33.11;100690.78;5407156;32;43275;-70
2023/05/25 07:47:48;;;;;;;;;;;;;;;30.68;31.99;100687.03;5389358;32;35651;-68
2023/05/25 07:50:51;;;;;;;;;;;;;;;30.47;31.86;100690.41;5403278;32;34449;-75
2023/05/25 07:53:55;;;;;;;;;;;;;;;29.65;33.67;100692.78;5400304;32;36546;-76
2023/05/25 07:56:57;;;;;;;;;;;;;;;31.76;30.24;100685.69;5409450;32;35500;-73
2023/05/25 07:59:59;;;;;;;;;;;;;;;30.00;32.81;100698.66;5414198;32;33187;-77
2023/05/25 08:03:01;;;;;;;;;;;;;;;30.36;32.06;100698.97;5395743;32;33077;-69
2023/05/25 08:06:04;;;;;;;;;;;;;;;32.87;28.20;100685.16;5412487;32;34175;-77
2023/05/25 08:09:06;;;;;;;;;;;;;;;33.00;27.56;100678.97;5398903;32;35366;-67
2023/05/25 08:12:14;;;;;;;;;;;;;;;30.97;30.95;100693.53;5402958;32;35140;-71
2023/05/25 08:15:36;;;;;;;;;;;;;;;30.43;31.61;100683.66;5416589;32;35970;-72
2023/05/25 08:18:39;;;;;;;;;;;;;;;29.71;32.55;100698.50;5402350;32;33456;-74
2023/05/25 08:21:41;;;;;;;;;;;;;;;30.43;31.45;100693.66;5413877;32;33071;-70
2023/05/25 08:24:43;;;;;;;;;;;;;;;29.39;33.09;100694.87;5409474;32;34266;-72
2023/05/25 08:27:46;;;;;;;;;;;;;;;29.94;32.55;100691.25;5391732;32;45032;-73
2023/05/25 08:30:48;;;;;;;;;;;;;;;29.83;32.03;100689.81;5386437;32;34178;-73
2023/05/25 08:33:50;;;;;;;;;;;;;;;29.37;32.84;100695.06;5415831;32;34463;-78
2023/05/25 08:36:52;;;;;;;;;;;;;;;30.35;31.36;100700.00;5397739;32;35443;-75
2023/05/25 08:39:54;;;;;;;;;;;;;;;29.73;32.77;100701.87;5396477;32;35119;-84
2023/05/25 08:42:56;;;;;;;;;;;;;;;28.30;34.90;100704.25;5407846;32;34112;-72
2023/05/25 08:46:02;;;;;;;;;;;;;;;29.32;32.64;100699.31;5393409;32;34252;-78
2023/05/25 08:49:07;;;;;;;;;;;;;;;28.09;34.77;100700.34;5382247;32;35332;-74
2023/05/25 08:52:10;;;;;;;;;;;;;;;30.45;30.71;100700.56;5406257;32;35665;-69
2023/05/25 08:55:12;;;;;;;;;;;;;;;29.87;32.16;100699.25;5378352;32;35047;-78
2023/05/25 08:58:18;;;;;;;;;;;;;;;29.09;33.47;100700.03;5412910;32;34055;-69
2023/05/25 09:01:21;;;;;;;;;;;;;;;29.16;33.00;100700.19;5377357;32;44798;-68
2023/05/25 09:04:23;;;;;;;;;;;;;;;28.45;34.69;100696.34;5399614;32;34361;-70
2023/05/25 09:07:27;;;;;;;;;;;;;;;28.51;34.39;100695.66;5388174;32;34927;-69
2023/05/25 09:10:29;;;;;;;;;;;;;;;28.46;35.16;100695.31;5380392;32;35588;-77
2023/05/25 09:13:31;;;;;;;;;;;;;;;28.28;35.25;100697.31;5416415;32;35013;-78
2023/05/25 09:16:36;;;;;;;;;;;;;;;28.60;34.96;100694.66;5386852;32;35070;-72
2023/05/25 09:19:40;;;;;;;;;;;;;;;26.82;38.29;100692.94;5394450;32;35976;-70
2023/05/25 09:22:43;;;;;;;;;;;;;;;28.09;36.29;100709.28;5387480;32;34986;-77
2023/05/25 09:25:45;;;;;;;;;;;;;;;28.07;36.24;100706.72;5381439;32;34407;-69
2023/05/25 09:28:48;;;;;;;;;;;;;;;28.51;35.86;100692.97;5393215;32;44655;-70
2023/05/25 09:31:50;;;;;;;;;;;;;;;28.30;36.33;100685.31;5416059;32;34877;-71
2023/05/25 09:34:54;;;;;;;;;;;;;;;27.79;37.20;100706.16;5382250;32;34135;-78
2023/05/25 09:37:56;;;;;;;;;;;;;;;27.96;36.77;100701.66;5398011;32;35770;-86
2023/05/25 09:41:00;;;;;;;;;;;;;;;28.27;36.54;100687.50;5384488;32;37889;-74
2023/05/25 09:44:05;;;;;;;;;;;;;;;28.38;36.50;100699.88;5373961;32;34624;-79
2023/05/25 09:47:14;;;;;;;;;;;;;;;29.17;34.92;100701.03;5386035;32;34042;-77
2023/05/25 09:50:16;;;;;;;;;;;;;;;30.87;32.02;100695.69;5390594;32;44054;-75
2023/05/25 09:53:18;;;;;;;;;;;;;;;31.25;30.82;100700.06;5393994;32;34993;-78
2023/05/25 09:56:23;;;;;;;;;;;;;;;29.80;33.35;100702.84;5380362;32;35500;-70
2023/05/25 09:59:26;;;;;;;;;;;;;;;28.29;35.95;100713.38;5384279;32;34301;-70
2023/05/25 10:02:28;;;;;;;;;;;;;;;26.87;39.27;100711.34;5409865;32;36312;-74
2023/05/25 10:05:30;;;;;;;;;;;;;;;28.16;37.41;100707.59;5392391;32;35410;-77
2023/05/25 10:08:32;;;;;;;;;;;;;;;29.57;34.64;100703.66;5376261;32;34522;-72
2023/05/25 10:11:35;;;;;;;;;;;;;;;29.42;34.92;100702.63;5403628;32;34038;-72
2023/05/25 10:14:37;;;;;;;;;;;;;;;27.44;39.41;100701.78;5393932;32;34972;-69
2023/05/25 10:17:44;;;;;;;;;;;;;;;29.13;36.11;100695.13;5413693;32;34193;-69
2023/05/25 10:20:46;;;;;;;;;;;;;;;31.29;32.17;100695.06;5395848;32;43552;-79
2023/05/25 10:23:49;;;;;;;;;;;;;;;30.73;32.25;100695.47;5405392;32;36633;-66
2023/05/25 10:26:52;;;;;;;;;;;;;;;29.63;34.58;100692.09;5395458;32;34471;-72
2023/05/25 10:29:55;;;;;;;;;;;;;;;29.33;35.19;100691.00;5394648;32;34626;-80
2023/05/25 10:32:57;;;;;;;;;;;;;;;31.06;32.04;100678.88;5406168;32;35964;-73
2023/05/25 10:35:59;;;;;;;;;;;;;;;31.15;32.19;100676.88;5385100;32;34708;-74
2023/05/25 10:39:11;;;;;;;;;;;;;;;32.17;29.94;100680.50;5391955;32;34921;-74
2023/05/25 10:42:13;;;;;;;;;;;;;;;32.18;29.96;100682.19;5385566;32;34675;-71
2023/05/25 10:45:15;;;;;;;;;;;;;;;32.72;28.55;100676.22;5409212;32;34375;-72
2023/05/25 10:48:17;;;;;;;;;;;;;;;33.77;27.64;100666.19;5371377;32;45333;-72
2023/05/25 10:51:20;;;;;;;;;;;;;;;33.47;27.57;100665.62;5408507;32;34296;-72
2023/05/25 10:54:22;;;;;;;;;;;;;;;35.96;24.66;100662.22;5386306;32;34395;-71
2023/05/25 10:57:24;;;;;;;;;;;;;;;32.25;29.95;100674.94;5388187;32;33160;-70
2023/05/25 11:00:29;;;;;;;;;;;;;;;32.63;29.36;100669.22;5410505;32;34428;-75
2023/05/25 11:03:47;;;;;;;;;;;;;;;31.81;30.63;100669.66;5390794;32;36174;-71
2023/05/25 11:06:49;;;;;;;;;;;;;;;32.82;28.71;100660.37;5408665;32;44518;-70
2023/05/25 11:09:58;;;;;;;;;;;;;;;33.44;27.98;100660.59;5407557;32;34173;-73
2023/05/25 11:13:19;;;;;;;;;;;;;;;33.72;27.50;100655.03;5408919;32;34790;-74
2023/05/25 11:16:24;;;;;;;;;;;;;;;32.08;30.17;100654.50;5415198;32;46633;-70
2023/05/25 11:19:26;;;;;;;;;;;;;;;33.98;27.79;100640.66;5402796;32;34297;-72
2023/05/25 11:22:31;;;;;;;;;;;;;;;34.39;27.09;100643.22;5397213;32;34417;-69
2023/05/25 11:25:33;;;;;;;;;;;;;;;34.42;26.47;100640.94;5394426;32;35737;-76
2023/05/25 11:28:44;;;;;;;;;;;;;;;30.12;32.32;100653.91;5407138;32;34398;-67
2023/05/25 11:31:48;;;;;;;;;;;;;;;30.48;30.59;100645.16;5414488;32;44737;-73
2023/05/25 11:34:51;;;;;;;;;;;;;;;30.90;29.96;100643.75;5376278;32;36221;-70
2023/05/25 11:37:53;;;;;;;;;;;;;;;30.54;31.40;100643.59;5399445;32;34668;-71
2023/05/25 11:40:56;;;;;;;;;;;;;;;31.06;31.46;100640.03;5384878;32;34269;-71
2023/05/25 11:44:07;;;;;;;;;;;;;;;29.90;34.04;100642.00;5415243;32;35552;-76
2023/05/25 11:47:12;;;;;;;;;;;;;;;30.75;32.83;100627.47;5392793;32;35031;-76
2023/05/25 11:50:16;;;;;;;;;;;;;;;31.05;31.94;100628.31;5398257;32;34178;-78
2023/05/25 11:53:17;;;;;;;;;;;;;;;30.63;32.50;100626.19;5410173;32;44110;-75
2023/05/25 11:56:22;;;;;;;;;;;;;;;30.59;32.86;100619.44;5410760;32;34506;-74
2023/05/25 11:59:38;;;;;;;;;;;;;;;31.41;31.89;100616.69;5415491;32;34236;-69
2023/05/25 12:02:40;;;;;;;;;;;;;;;31.18;32.12;100608.66;5413593;32;34836;-72
2023/05/25 12:05:42;;;;;;;;;;;;;;;31.62;30.41;100613.19;5400245;32;34271;-72
2023/05/25 12:08:45;;;;;;;;;;;;;;;31.19;31.69;100597.59;5409948;32;34161;-72
2023/05/25 12:11:47;;;;;;;;;;;;;;;31.19;31.99;100610.34;5407889;32;44594;-73
2023/05/25 12:14:49;;;;;;;;;;;;;;;29.44;34.10;100615.84;5387887;32;34978;-71
2023/05/25 12:17:54;;;;;;;;;;;;;;;28.44;36.32;100610.00;5391170;32;34384;-70
2023/05/25 12:20:56;;;;;;;;;;;;;;;28.11;37.36;100611.84;5407814;32;35701;-70
2023/05/25 12:23:58;;;;;;;;;;;;;;;26.73;40.25;100613.00;5398698;32;37662;-71
2023/05/25 12:27:03;;;;;;;;;;;;;;;27.40;38.68;100611.34;5409090;32;34349;-73
2023/05/25 12:30:07;;;;;;;;;;;;;;;27.80;38.38;100601.69;5413412;32;34247;-71
2023/05/25 12:33:11;;;;;;;;;;;;;;;28.07;38.30;100604.06;5390864;32;35710;-68
2023/05/25 12:36:13;;;;;;;;;;;;;;;28.16;36.94;100601.38;5391952;32;34384;-69
2023/05/25 12:39:15;;;;;;;;;;;;;;;27.62;38.76;100607.16;5407937;32;34374;-69
2023/05/25 12:42:18;;;;;;;;;;;;;;;27.73;38.04;100612.28;5401301;32;44392;-70
2023/05/25 12:45:20;;;;;;;;;;;;;;;27.82;37.73;100605.03;5400677;32;34347;-68
2023/05/25 12:48:25;;;;;;;;;;;;;;;28.24;37.25;100590.56;5377500;32;35968;-67
2023/05/25 12:51:36;;;;;;;;;;;;;;;28.38;36.66;100587.19;5414573;32;34218;-71
2023/05/25 12:54:44;;;;;;;;;;;;;;;28.25;36.53;100600.34;5397106;32;34201;-71
2023/05/25 12:57:51;;;;;;;;;;;;;;;28.93;36.59;100593.72;5395668;32;44431;-71
2023/05/25 13:00:53;;;;;;;;;;;;;;;28.91;35.80;100590.28;5393190;32;35542;-70
2023/05/25 13:03:55;;;;;;;;;;;;;;;27.69;38.50;100585.78;5407125;32;34441;-72
2023/05/25 13:06:57;;;;;;;;;;;;;;;27.30;39.15;100583.63;5401069;32;35560;-69
2023/05/25 13:09:59;;;;;;;;;;;;;;;27.25;39.67;100580.59;5404573;32;34316;-67
2023/05/25 13:13:02;;;;;;;;;;;;;;;27.31;39.68;100579.94;5397345;32;34690;-74
2023/05/25 13:16:04;;;;;;;;;;;;;;;27.30;39.52;100569.28;5408102;32;35553;-73
2023/05/25 13:19:06;;;;;;;;;;;;;;;27.97;38.49;100562.87;5411246;32;34395;-76
2023/05/25 13:22:08;;;;;;;;;;;;;;;27.50;39.08;100568.87;5397408;32;36074;-77
2023/05/25 13:25:11;;;;;;;;;;;;;;;27.75;38.40;100566.22;5403625;32;35190;-69
2023/05/25 13:28:13;;;;;;;;;;;;;;;28.32;37.52;100560.84;5413069;32;36887;-71
2023/05/25 13:31:15;;;;;;;;;;;;;;;28.05;37.39;100557.47;5415107;32;34426;-71
2023/05/25 13:34:17;;;;;;;;;;;;;;;28.39;36.88;100559.16;5402814;32;44903;-70
2023/05/25 13:37:19;;;;;;;;;;;;;;;27.80;38.45;100550.38;5389142;32;34278;-71
2023/05/25 13:40:21;;;;;;;;;;;;;;;27.65;38.91;100550.16;5409367;32;34456;-74
2023/05/25 13:43:23;;;;;;;;;;;;;;;28.04;38.10;100538.72;5387714;32;35285;-72
2023/05/25 13:46:25;;;;;;;;;;;;;;;28.94;37.40;100535.87;5372939;32;33539;-77
2023/05/25 13:49:34;;;;;;;;;;;;;;;29.67;34.94;100530.06;5407049;32;34210;-71
2023/05/25 13:52:36;;;;;;;;;;;;;;;29.71;34.53;100530.56;5403530;32;34714;-71
2023/05/25 13:55:38;;;;;;;;;;;;;;;29.60;35.06;100518.28;5420807;32;35541;-70
2023/05/25 13:58:40;;;;;;;;;;;;;;;28.85;36.64;100518.78;5401076;32;35382;-71
2023/05/25 14:01:42;;;;;;;;;;;;;;;27.81;38.09;100514.25;5400146;32;34395;-75
2023/05/25 14:04:44;;;;;;;;;;;;;;;28.20;37.10;100505.44;5404815;32;34398;-77
2023/05/25 14:07:46;;;;;;;;;;;;;;;27.67;37.96;100515.72;5406559;32;46085;-76
2023/05/25 14:10:49;;;;;;;;;;;;;;;28.49;36.79;100508.47;5406659;32;34857;-77
2023/05/25 14:13:51;;;;;;;;;;;;;;;28.56;36.31;100506.75;5411030;32;37682;-77
2023/05/25 14:16:53;;;;;;;;;;;;;;;29.31;35.25;100513.56;5417363;32;35492;-76
2023/05/25 14:19:55;;;;;;;;;;;;;;;29.32;35.01;100507.13;5413303;32;34536;-75
2023/05/25 14:22:57;;;;;;;;;;;;;;;27.28;38.09;100507.41;5398803;32;34626;-77
2023/05/25 14:25:59;;;;;;;;;;;;;;;27.19;39.03;100500.31;5419219;32;36882;-75
2023/05/25 14:29:01;;;;;;;;;;;;;;;28.01;37.36;100501.22;5410338;32;35089;-76
2023/05/25 14:32:03;;;;;;;;;;;;;;;27.51;38.18;100500.38;5401211;32;37347;-74
2023/05/25 14:35:05;;;;;;;;;;;;;;;27.67;38.03;100495.97;5400213;32;34976;-76
2023/05/25 14:38:07;;;;;;;;;;;;;;;27.99;37.23;100503.28;5398173;32;35021;-76
2023/05/25 14:41:09;;;;;;;;;;;;;;;27.31;38.20;100496.28;5417019;32;35415;-75
2023/05/25 14:44:11;;;;;;;;;;;;;;;27.89;37.16;100486.41;5402470;32;35123;-76
2023/05/25 14:47:13;;;;;;;;;;;;;;;28.29;36.43;100491.75;5395998;32;35415;-74
2023/05/25 14:50:15;;;;;;;;;;;;;;;26.87;39.29;100499.16;5388918;32;43898;-77
2023/05/25 14:53:17;;;;;;;;;;;;;;;27.80;37.71;100486.41;5421388;32;35419;-77
2023/05/25 14:56:23;;;;;;;;;;;;;;;28.60;36.36;100489.16;5414931;32;35308;-76
2023/05/25 14:59:25;;;;;;;;;;;;;;;28.07;37.43;100487.87;5404907;32;35110;-76
2023/05/25 15:02:27;;;;;;;;;;;;;;;27.95;37.78;100481.19;5398330;32;33950;-77
2023/05/25 15:05:30;;;;;;;;;;;;;;;28.18;37.39;100483.16;5400187;32;35462;-77
2023/05/25 15:08:32;;;;;;;;;;;;;;;28.00;37.99;100481.47;5413320;32;35143;-75
2023/05/25 15:11:34;;;;;;;;;;;;;;;27.73;38.37;100484.53;5411068;32;33863;-75
2023/05/25 15:14:38;;;;;;;;;;;;;;;27.59;38.60;100487.87;5411448;32;34931;-77
2023/05/25 15:17:40;;;;;;;;;;;;;;;27.74;38.92;100488.94;5396456;32;34864;-77
2023/05/25 15:20:43;;;;;;;;;;;;;;;27.57;39.13;100482.66;5426267;32;35287;-77
2023/05/25 15:23:45;;;;;;;;;;;;;;;27.25;39.37;100483.47;5407730;32;36058;-76
2023/05/25 15:26:49;;;;;;;;;;;;;;;26.89;39.84;100485.50;5412848;32;44791;-74
2023/05/25 15:29:51;;;;;;;;;;;;;;;27.33;38.74;100475.38;5408417;32;35725;-75
2023/05/25 15:32:53;;;;;;;;;;;;;;;26.89;40.17;100490.91;5410506;32;35585;-76
2023/05/25 15:35:55;;;;;;;;;;;;;;;27.52;39.34;100469.66;5387352;32;34883;-76
2023/05/25 15:38:57;;;;;;;;;;;;;;;27.83;38.46;100482.53;5405320;32;34858;-77